首页
METAR-TAF:

METAR-TAF

机场 :

McChord Air Force Base

塔科马, 华盛顿, 美国

纬度: 47-09N, 经度: 122-29W, 海拔: 98米

当前天气观测

该预报发布于39分钟前的07:58 UTC
静风
温度 1°C
湿度 100%
气压 1014 hPa
能見度: 16.1公里
天空无云

METAR: KTCM 170758Z COR AUTO 00000KT 10SM CLR 01/01 A2995 RMK AO2 SLP148 T00060006 400600006 $ COR 0812

时间: 00:37 (08:37 UTC)

预报

该预报发布于3小时和22分钟前的05:15 UTC
预报有效从17日的 05点(UTC)到 18日的 11点(UTC)
风速6节,风向南转南东
能见度10公里或以上
少量云层高于3500英尺
散云层高于15000英尺
成为
从 17日的 10点(UTC)到 17日的 11点(UTC)
风速6节,风向多变
能見度: 4800
少量云层高于3500英尺
轻雾
短暂存在
从 17日的 11点(UTC)到 17日的 17点(UTC)
能見度: 3200
轻雾
成为
从 17日的 16点(UTC)到 17日的 17点(UTC)
风速9节,风向
能见度10公里或以上
散云层高于3500英尺
成为
从 17日的 21点(UTC)到 17日的 22点(UTC)
风速10节,风向
能见度10公里或以上
多云层高于3000英尺
成为
从 18日的 01点(UTC)到 18日的 02点(UTC)
风速6节,风向北转东北
能见度10公里或以上
多云层高于3000英尺
成为
从 18日的 09点(UTC)到 18日的 10点(UTC)
风速6节,风向多变
能見度: 4800
多云层高于2500英尺
轻雾

TAF: KTCM 170515Z 1705/1811 16006KT 9999 FEW035 SCT150 QNH2990INS BECMG 1710/1711 VRB06KT 4800 BR FEW035 QNH2995INS TEMPO 1711/1717 3200 BR BECMG 1716/1717 36009KT 9999 NSW SCT035 QNH3010INS BECMG 1721/1722 36010KT 9999 BKN030 620303 QNH3013INS BECMG 1801/1802 03006KT 9999 BKN030 620303 QNH3017INS BECMG 1809/1810 VRB06KT 4800 BR BKN025 620253 QNH3021INS TX06/1721Z TNM01/1715Z

超过4000个机场的气象观测和天气预报(METAR&TAF报告)。

可查询的气象台以黄色和红色小点在地图上表示。

将鼠标移到小点上方,可查看气象台名称。

然后点击查看天气观测和预报。

如需切换地图:点击带黑十字的绿色按钮放大地图;点击带横线的绿色按钮缩小地图;或者点击绿色箭头查看邻近地区的地图。


METAR-TAF: